createdAt,value
2018-03-17T00:00:24.232Z,2.40
2018-03-17T00:02:58.355Z,2.15
2018-03-17T00:05:32.431Z,2.12
2018-03-17T00:08:06.420Z,2.05
2018-03-17T00:10:40.475Z,2.60
2018-03-17T00:13:14.452Z,2.80
2018-03-17T00:15:48.493Z,2.47
2018-03-17T00:18:22.488Z,2.20
2018-03-17T00:20:56.487Z,2.60
2018-03-17T00:23:30.436Z,2.30
2018-03-17T00:26:04.396Z,1.98
2018-03-17T00:28:38.435Z,1.65
2018-03-17T00:31:12.443Z,1.73
2018-03-17T00:33:46.591Z,1.95
2018-03-17T00:36:27.519Z,1.90
2018-03-17T00:39:01.645Z,1.65
2018-03-17T00:41:35.764Z,1.58
2018-03-17T00:44:09.748Z,2.35
2018-03-17T00:46:43.892Z,2.10
2018-03-17T00:49:18.030Z,1.95
2018-03-17T00:51:52.065Z,1.98
2018-03-17T00:54:26.483Z,2.40
2018-03-17T00:57:00.449Z,2.00
2018-03-17T00:59:34.565Z,2.03
2018-03-17T01:02:08.552Z,2.15
2018-03-17T01:04:42.697Z,1.75
2018-03-17T01:07:16.787Z,1.80
2018-03-17T01:09:50.897Z,1.40
2018-03-17T01:12:25.044Z,1.98
2018-03-17T01:14:59.050Z,1.50
2018-03-17T01:17:33.065Z,2.17
2018-03-17T01:20:07.181Z,2.12
2018-03-17T01:22:41.271Z,1.83
2018-03-17T01:25:15.223Z,1.90
2018-03-17T01:27:49.205Z,2.40
2018-03-17T01:30:23.360Z,2.85
2018-03-17T01:32:57.268Z,2.05
2018-03-17T01:35:31.323Z,1.77
2018-03-17T01:38:05.490Z,1.90
2018-03-17T01:40:39.498Z,1.75
2018-03-17T01:43:13.483Z,1.73
2018-03-17T01:45:47.481Z,2.28
2018-03-17T01:48:21.527Z,1.80
2018-03-17T01:50:55.515Z,2.60
2018-03-17T01:53:29.639Z,2.12
2018-03-17T01:56:04.052Z,2.08
2018-03-17T01:58:38.189Z,2.10
2018-03-17T02:01:12.112Z,2.75
2018-03-17T02:03:46.276Z,1.90
2018-03-17T02:06:20.368Z,1.80
2018-03-17T02:08:54.271Z,2.03
2018-03-17T02:11:28.306Z,1.70
2018-03-17T02:14:02.295Z,1.80
2018-03-17T02:16:36.334Z,2.12
2018-03-17T02:19:10.390Z,2.37
2018-03-17T02:21:44.512Z,2.17
2018-03-17T02:24:18.550Z,2.37
2018-03-17T02:26:52.456Z,1.90
2018-03-17T02:29:26.439Z,1.87
2018-03-17T02:32:00.664Z,2.58
2018-03-17T02:34:34.776Z,2.50
2018-03-17T02:37:08.747Z,2.22
2018-03-17T02:39:42.912Z,2.35
2018-03-17T02:42:17.042Z,2.08
2018-03-17T02:44:51.084Z,3.12
2018-03-17T02:47:25.127Z,2.00
2018-03-17T02:49:59.077Z,2.28
2018-03-17T02:52:33.097Z,2.20
2018-03-17T02:55:07.280Z,2.00
2018-03-17T02:57:41.616Z,1.83
2018-03-17T03:00:15.592Z,2.00
2018-03-17T03:02:49.553Z,2.03
2018-03-17T03:05:23.926Z,2.40
2018-03-17T03:07:57.881Z,2.25
2018-03-17T03:10:31.968Z,2.10
2018-03-17T03:13:06.062Z,2.45
2018-03-17T03:15:40.266Z,2.22
2018-03-17T03:18:14.395Z,2.30
2018-03-17T03:20:48.331Z,2.33
2018-03-17T03:23:22.287Z,2.80
2018-03-17T03:25:56.320Z,2.90
2018-03-17T03:28:30.411Z,2.55
2018-03-17T03:31:04.399Z,3.00
2018-03-17T03:33:38.442Z,2.60
2018-03-17T03:36:12.440Z,3.28
2018-03-17T03:38:46.454Z,3.10
2018-03-17T03:41:20.682Z,3.20
2018-03-17T03:43:54.706Z,3.10
2018-03-17T03:46:28.802Z,3.67
2018-03-17T03:49:02.924Z,4.25
2018-03-17T03:51:37.438Z,4.40
2018-03-17T03:54:11.557Z,4.45
2018-03-17T03:56:45.704Z,4.35
2018-03-17T03:59:20.224Z,4.03
2018-03-17T04:01:54.230Z,3.92
2018-03-17T04:04:28.329Z,4.60
2018-03-17T04:07:02.337Z,4.55
2018-03-17T04:09:36.460Z,4.05
2018-03-17T04:12:10.360Z,4.40
2018-03-17T04:14:44.488Z,4.07
2018-03-17T04:17:18.480Z,4.53
2018-03-17T04:19:52.507Z,4.72
2018-03-17T04:22:26.496Z,4.47
2018-03-17T04:25:00.506Z,3.78
2018-03-17T04:27:34.659Z,3.62
2018-03-17T04:30:08.603Z,3.85
2018-03-17T04:32:43.012Z,3.67
2018-03-17T04:35:17.198Z,3.72
2018-03-17T04:37:51.225Z,3.35
2018-03-17T04:40:25.159Z,4.25
2018-03-17T04:42:59.617Z,3.22
2018-03-17T04:45:33.719Z,2.97
2018-03-17T04:48:07.809Z,3.00
2018-03-17T04:50:41.749Z,3.45
2018-03-17T04:53:15.643Z,4.05
2018-03-17T04:55:49.834Z,3.17
2018-03-17T04:58:23.824Z,3.60
2018-03-17T05:00:58.212Z,2.87
2018-03-17T05:03:32.481Z,2.80
2018-03-17T05:06:06.395Z,3.60
2018-03-17T05:08:40.494Z,4.20
2018-03-17T05:11:14.459Z,3.75
2018-03-17T05:13:48.526Z,3.50
2018-03-17T05:16:22.511Z,3.87
2018-03-17T05:18:56.522Z,3.30
2018-03-17T05:21:30.592Z,3.22
2018-03-17T05:24:04.631Z,3.95
2018-03-17T05:26:38.751Z,3.65
2018-03-17T05:29:12.917Z,3.20
2018-03-17T05:31:46.988Z,3.15
2018-03-17T05:34:20.967Z,3.25
2018-03-17T05:36:54.928Z,3.97
2018-03-17T05:39:28.995Z,3.60
2018-03-17T05:42:03.019Z,3.50
2018-03-17T05:44:37.156Z,2.75
2018-03-17T05:47:11.135Z,3.30
2018-03-17T05:49:45.346Z,3.60
2018-03-17T05:52:19.275Z,2.40
2018-03-17T05:54:53.145Z,3.80
2018-03-17T05:57:27.140Z,3.28
2018-03-17T06:00:01.183Z,3.17
2018-03-17T06:02:35.446Z,3.20
2018-03-17T06:05:09.575Z,2.50
2018-03-17T06:07:43.695Z,2.10
2018-03-17T06:10:17.655Z,2.30
2018-03-17T06:12:51.815Z,2.25
2018-03-17T06:15:25.779Z,2.10
2018-03-17T06:17:59.927Z,2.22
2018-03-17T06:20:33.926Z,2.37
2018-03-17T06:23:07.884Z,2.60
2018-03-17T06:25:41.875Z,2.50
2018-03-17T06:28:15.828Z,2.60
2018-03-17T06:30:49.957Z,2.08
2018-03-17T06:33:23.903Z,2.75
2018-03-17T06:35:58.040Z,2.05
2018-03-17T06:38:32.115Z,2.43
2018-03-17T06:41:06.072Z,2.55
2018-03-17T06:43:40.144Z,2.78
2018-03-17T06:46:14.131Z,2.40
2018-03-17T06:48:48.684Z,2.33
2018-03-17T06:51:22.751Z,2.30
2018-03-17T06:53:56.785Z,2.10
2018-03-17T06:56:30.887Z,1.85
2018-03-17T06:59:04.970Z,1.83
2018-03-17T07:01:39.028Z,2.20
2018-03-17T07:04:13.362Z,2.75
2018-03-17T07:06:47.764Z,1.80
2018-03-17T07:09:21.864Z,1.90
2018-03-17T07:11:55.815Z,2.55
2018-03-17T07:14:29.866Z,1.83
2018-03-17T07:17:03.791Z,2.10
2018-03-17T07:19:37.944Z,2.83
2018-03-17T07:22:11.923Z,1.95
2018-03-17T07:24:46.132Z,1.75
2018-03-17T07:27:20.181Z,2.60
2018-03-17T07:29:54.264Z,2.62
2018-03-17T07:32:28.395Z,1.87
2018-03-17T07:35:02.461Z,2.20
2018-03-17T07:37:36.561Z,2.80
2018-03-17T07:40:10.595Z,2.03
2018-03-17T07:42:44.611Z,2.42
2018-03-17T07:45:18.657Z,2.97
2018-03-17T07:47:52.791Z,2.60
2018-03-17T07:50:26.828Z,2.75
2018-03-17T07:53:00.800Z,1.62
2018-03-17T07:55:34.984Z,2.15
2018-03-17T07:58:09.036Z,2.05
2018-03-17T08:00:43.087Z,2.78
2018-03-17T08:03:17.099Z,2.22
2018-03-17T08:05:51.659Z,2.65
2018-03-17T08:08:26.572Z,2.40
2018-03-17T08:11:00.567Z,2.53
2018-03-17T08:13:34.652Z,2.75
2018-03-17T08:16:08.661Z,2.47
2018-03-17T08:18:42.891Z,2.20
2018-03-17T08:21:17.067Z,2.33
2018-03-17T08:23:51.516Z,2.40
2018-03-17T08:26:25.512Z,2.20
2018-03-17T08:28:59.723Z,2.10
2018-03-17T08:31:33.704Z,2.40
2018-03-17T08:34:07.699Z,1.60
2018-03-17T08:36:41.787Z,1.70
2018-03-17T08:39:15.785Z,2.10
2018-03-17T08:41:49.965Z,1.90
2018-03-17T08:44:24.312Z,2.42
2018-03-17T08:46:58.447Z,2.78
2018-03-17T08:49:32.419Z,2.50
2018-03-17T08:52:06.333Z,2.45
2018-03-17T08:54:40.412Z,2.17
2018-03-17T08:57:14.448Z,2.30
2018-03-17T08:59:48.801Z,2.47
2018-03-17T09:02:22.755Z,2.20
2018-03-17T09:04:57.127Z,2.62
2018-03-17T09:07:31.083Z,2.05
2018-03-17T09:10:05.168Z,2.12
2018-03-17T09:12:39.167Z,2.10
2018-03-17T09:15:13.368Z,2.17
2018-03-17T09:17:47.395Z,3.17
2018-03-17T09:20:21.603Z,2.15
2018-03-17T09:22:55.531Z,2.33
2018-03-17T09:25:29.662Z,2.30
2018-03-17T09:28:03.635Z,2.45
2018-03-17T09:30:37.611Z,2.30
2018-03-17T09:33:11.755Z,2.33
2018-03-17T09:35:45.959Z,2.50
2018-03-17T09:38:26.867Z,2.87
2018-03-17T09:41:01.091Z,2.30
2018-03-17T09:43:35.204Z,2.65
2018-03-17T09:46:09.352Z,2.67
2018-03-17T09:48:43.308Z,2.83
2018-03-17T09:51:17.463Z,2.50
2018-03-17T09:53:51.740Z,2.22
2018-03-17T09:56:25.583Z,2.33
2018-03-17T09:58:59.542Z,2.67
2018-03-17T10:01:33.729Z,3.15
2018-03-17T10:04:07.917Z,2.37
2018-03-17T10:06:42.057Z,2.50
2018-03-17T10:09:16.548Z,2.87
2018-03-17T10:11:50.436Z,2.50
2018-03-17T10:14:24.504Z,2.90
2018-03-17T10:16:58.530Z,2.90
2018-03-17T10:19:32.588Z,2.87
2018-03-17T10:22:06.781Z,4.15
2018-03-17T10:24:40.912Z,3.62
2018-03-17T10:27:14.923Z,2.57
2018-03-17T10:29:49.061Z,3.30
2018-03-17T10:32:23.114Z,3.22
2018-03-17T10:34:57.051Z,2.90
2018-03-17T10:37:31.135Z,2.25
2018-03-17T10:40:05.192Z,2.35
2018-03-17T10:42:39.327Z,3.10
2018-03-17T10:45:13.475Z,2.62
2018-03-17T10:47:47.654Z,2.87
2018-03-17T10:50:21.631Z,2.40
2018-03-17T10:52:55.676Z,2.10
2018-03-17T10:55:29.783Z,2.87
2018-03-17T10:58:03.801Z,3.65
2018-03-17T11:00:44.219Z,4.50
2018-03-17T11:03:18.315Z,2.67
2018-03-17T11:05:52.461Z,3.28
2018-03-17T11:08:26.623Z,2.70
2018-03-17T11:11:01.412Z,2.87
2018-03-17T11:13:35.743Z,2.60
2018-03-17T11:16:09.687Z,2.70
2018-03-17T11:18:43.792Z,2.70
2018-03-17T11:21:17.755Z,2.20
2018-03-17T11:23:51.912Z,2.67
2018-03-17T11:26:26.116Z,2.65
2018-03-17T11:29:00.298Z,2.15
2018-03-17T11:31:34.297Z,2.45
2018-03-17T11:34:08.472Z,2.33
2018-03-17T11:36:42.883Z,2.72
2018-03-17T11:39:16.899Z,2.70
2018-03-17T11:41:51.066Z,2.12
2018-03-17T11:44:24.963Z,3.08
2018-03-17T11:46:59.039Z,2.42
2018-03-17T11:49:33.041Z,2.78
2018-03-17T11:52:07.006Z,2.60
2018-03-17T11:54:41.213Z,2.75
2018-03-17T11:57:15.120Z,3.28
2018-03-17T11:59:49.333Z,2.60
2018-03-17T12:02:23.250Z,2.80
2018-03-17T12:04:57.287Z,4.32
2018-03-17T12:07:31.367Z,3.65
2018-03-17T12:10:05.678Z,2.87
2018-03-17T12:12:39.663Z,3.25
2018-03-17T12:15:13.691Z,3.45
2018-03-17T12:17:47.932Z,2.80
2018-03-17T12:20:23.805Z,3.10
2018-03-17T12:22:58.229Z,4.37
2018-03-17T12:25:32.184Z,2.95
2018-03-17T12:28:06.145Z,3.00
2018-03-17T12:30:40.191Z,3.65
2018-03-17T12:33:14.218Z,2.72
2018-03-17T12:35:48.344Z,2.80
2018-03-17T12:38:23.870Z,3.20
2018-03-17T12:40:57.868Z,3.62
2018-03-17T12:43:32.292Z,2.40
2018-03-17T12:46:06.359Z,3.15
2018-03-17T12:48:40.391Z,3.30
2018-03-17T12:51:14.639Z,3.33
2018-03-17T12:53:48.763Z,3.25
2018-03-17T12:56:22.739Z,3.05
2018-03-17T12:58:56.887Z,3.10
2018-03-17T13:01:31.027Z,3.20
2018-03-17T13:04:04.892Z,3.33
2018-03-17T13:06:38.936Z,3.17
2018-03-17T13:09:12.918Z,3.30
2018-03-17T13:11:47.065Z,3.20
2018-03-17T13:14:21.615Z,3.53
2018-03-17T13:16:55.684Z,3.30
2018-03-17T13:19:29.883Z,3.58
2018-03-17T13:22:04.063Z,3.35
2018-03-17T13:24:38.392Z,3.65
2018-03-17T13:27:18.570Z,2.87
2018-03-17T13:29:52.575Z,3.35
2018-03-17T13:32:32.656Z,3.00
2018-03-17T13:35:06.643Z,3.08
2018-03-17T13:37:40.875Z,3.20
2018-03-17T13:40:21.228Z,3.40
2018-03-17T13:42:55.254Z,3.12
2018-03-17T13:45:29.452Z,3.30
2018-03-17T13:48:03.531Z,3.72
2018-03-17T13:50:37.928Z,3.37
2018-03-17T13:53:11.925Z,3.20
2018-03-17T13:55:46.037Z,3.87
2018-03-17T13:58:20.142Z,3.08
2018-03-17T14:00:54.585Z,3.53
2018-03-17T14:03:28.713Z,2.72
2018-03-17T14:06:02.688Z,3.50
2018-03-17T14:08:36.790Z,3.05
2018-03-17T14:11:10.905Z,3.08
2018-03-17T14:13:45.049Z,3.30
2018-03-17T14:16:19.455Z,3.55
2018-03-17T14:18:53.661Z,3.95
2018-03-17T14:21:27.707Z,4.30
2018-03-17T14:24:01.638Z,3.67
2018-03-17T14:26:35.959Z,2.90
2018-03-17T14:29:09.923Z,3.45
2018-03-17T14:31:43.930Z,3.00
2018-03-17T14:34:17.918Z,3.08
2018-03-17T14:36:52.137Z,2.70
2018-03-17T14:39:26.303Z,2.83
2018-03-17T14:42:00.297Z,2.70
2018-03-17T14:44:34.433Z,3.12
2018-03-17T14:47:08.407Z,2.72
2018-03-17T14:49:42.551Z,3.00
2018-03-17T14:52:16.583Z,2.80
2018-03-17T14:54:50.587Z,2.70
2018-03-17T14:57:24.592Z,2.75
2018-03-17T14:59:58.544Z,3.10
2018-03-17T15:02:32.649Z,3.03
2018-03-17T15:05:06.871Z,3.33
2018-03-17T15:07:41.051Z,3.30
2018-03-17T15:10:15.023Z,3.33
2018-03-17T15:12:49.208Z,3.12
2018-03-17T15:15:23.346Z,3.78
2018-03-17T15:17:57.356Z,3.03
2018-03-17T15:20:31.494Z,2.72
2018-03-17T15:23:05.450Z,2.83
2018-03-17T15:25:39.592Z,3.42
2018-03-17T15:28:13.583Z,3.78
2018-03-17T15:30:47.731Z,2.85
2018-03-17T15:33:21.947Z,3.95
2018-03-17T15:35:55.898Z,3.50
2018-03-17T15:38:29.800Z,2.75
2018-03-17T15:41:03.760Z,2.83
2018-03-17T15:43:37.980Z,3.33
2018-03-17T15:46:12.065Z,3.12
2018-03-17T15:48:46.251Z,4.07
2018-03-17T15:51:20.210Z,3.37
2018-03-17T15:53:54.245Z,3.22
2018-03-17T15:56:28.323Z,3.00
2018-03-17T15:59:02.498Z,3.35
2018-03-17T16:01:36.510Z,3.35
2018-03-17T16:04:10.499Z,4.25
2018-03-17T16:06:44.636Z,2.83
2018-03-17T16:09:19.019Z,3.12
2018-03-17T16:11:53.163Z,3.08
2018-03-17T16:14:27.371Z,3.08
2018-03-17T16:17:01.549Z,3.33
2018-03-17T16:19:35.882Z,2.90
2018-03-17T16:22:10.058Z,3.47
2018-03-17T16:24:44.108Z,3.65
2018-03-17T16:27:18.193Z,3.25
2018-03-17T16:29:52.468Z,3.10
2018-03-17T16:32:26.555Z,3.50
2018-03-17T16:35:00.792Z,3.78
2018-03-17T16:37:34.811Z,3.40
2018-03-17T16:40:08.781Z,3.03
2018-03-17T16:42:43.350Z,3.25
2018-03-17T16:45:17.610Z,3.05
2018-03-17T16:47:51.518Z,3.50
2018-03-17T16:50:25.489Z,3.67
2018-03-17T16:53:00.555Z,3.30
2018-03-17T16:55:35.569Z,3.60
2018-03-17T16:58:10.025Z,2.87
2018-03-17T17:00:44.052Z,3.10
2018-03-17T17:03:18.343Z,3.70
2018-03-17T17:05:52.669Z,5.18
2018-03-17T17:08:26.878Z,3.70
2018-03-17T17:11:01.814Z,2.62
2018-03-17T17:13:36.383Z,3.05
2018-03-17T17:16:10.627Z,2.60
2018-03-17T17:18:44.803Z,3.12
2018-03-17T17:21:19.491Z,3.30
2018-03-17T17:23:53.726Z,3.45
2018-03-17T17:26:27.779Z,3.00
2018-03-17T17:29:01.953Z,3.03
2018-03-17T17:31:36.013Z,5.43
2018-03-17T17:34:10.043Z,10.80
2018-03-17T17:36:44.175Z,3.90
2018-03-17T17:39:18.133Z,3.42
2018-03-17T17:41:52.115Z,3.50
2018-03-17T17:44:26.058Z,3.25
2018-03-17T17:47:00.444Z,3.75
2018-03-17T17:49:34.416Z,3.30
2018-03-17T17:52:08.459Z,3.33
2018-03-17T17:54:42.515Z,3.55
2018-03-17T17:57:16.471Z,4.10
2018-03-17T17:59:50.612Z,4.12
2018-03-17T18:02:24.564Z,3.53
2018-03-17T18:04:58.709Z,3.60
2018-03-17T18:07:32.842Z,3.42
2018-03-17T18:10:06.953Z,2.80
2018-03-17T18:12:41.136Z,3.58
2018-03-17T18:15:15.439Z,3.20
2018-03-17T18:17:49.418Z,4.10
2018-03-17T18:20:23.429Z,3.60
2018-03-17T18:22:57.712Z,3.62
2018-03-17T18:25:31.780Z,3.40
2018-03-17T18:28:05.768Z,3.30
2018-03-17T18:30:40.192Z,3.62
2018-03-17T18:33:14.113Z,3.40
2018-03-17T18:35:48.101Z,3.90
2018-03-17T18:38:22.671Z,3.37
2018-03-17T18:40:56.857Z,3.60
2018-03-17T18:43:30.944Z,3.20
2018-03-17T18:46:04.895Z,3.30
2018-03-17T18:48:38.923Z,3.03
2018-03-17T18:51:12.926Z,2.90
2018-03-17T18:53:47.059Z,3.17
2018-03-17T18:56:21.043Z,3.30
2018-03-17T18:58:55.106Z,3.53
2018-03-17T19:01:29.234Z,3.37
2018-03-17T19:04:03.211Z,2.80
2018-03-17T19:06:37.339Z,3.05
2018-03-17T19:09:11.326Z,3.67
2018-03-17T19:11:45.372Z,3.62
2018-03-17T19:14:19.328Z,3.28
2018-03-17T19:16:54.288Z,4.20
2018-03-17T19:19:29.210Z,2.85
2018-03-17T19:22:03.340Z,3.10
2018-03-17T19:24:37.750Z,4.12
2018-03-17T19:27:11.739Z,3.35
2018-03-17T19:29:45.768Z,5.68
2018-03-17T19:32:19.955Z,3.75
2018-03-17T19:34:53.876Z,3.42
2018-03-17T19:37:28.120Z,3.55
2018-03-17T19:40:02.239Z,4.10
2018-03-17T19:42:36.372Z,3.80
2018-03-17T19:45:10.325Z,3.30
2018-03-17T19:47:44.369Z,3.03
2018-03-17T19:50:18.345Z,4.00
2018-03-17T19:52:52.386Z,3.37
2018-03-17T19:55:26.607Z,3.47
2018-03-17T19:58:01.007Z,4.40
2018-03-17T20:00:35.406Z,3.92
2018-03-17T20:03:09.490Z,3.65
2018-03-17T20:05:43.589Z,3.00
2018-03-17T20:08:17.872Z,3.25
2018-03-17T20:10:51.869Z,3.33
2018-03-17T20:13:26.056Z,4.05
2018-03-17T20:16:00.073Z,3.25
2018-03-17T20:18:34.160Z,3.40
2018-03-17T20:21:08.168Z,3.15
2018-03-17T20:23:42.163Z,3.50
2018-03-17T20:26:16.115Z,3.78
2018-03-17T20:28:50.236Z,2.65
2018-03-17T20:31:24.382Z,3.40
2018-03-17T20:34:00.119Z,2.87
2018-03-17T20:36:34.201Z,2.83
2018-03-17T20:39:08.164Z,3.70
2018-03-17T20:41:42.176Z,2.70
2018-03-17T20:44:16.135Z,2.58
2018-03-17T20:46:50.121Z,3.12
2018-03-17T20:49:24.255Z,3.05
2018-03-17T20:51:58.560Z,3.70
2018-03-17T20:54:33.595Z,3.50
2018-03-17T20:57:07.582Z,3.20
2018-03-17T20:59:41.798Z,2.80
2018-03-17T21:02:15.811Z,3.70
2018-03-17T21:04:50.021Z,4.55
2018-03-17T21:07:24.046Z,3.08
2018-03-17T21:09:57.966Z,3.25
2018-03-17T21:12:32.001Z,4.07
2018-03-17T21:15:06.473Z,3.83
2018-03-17T21:17:40.499Z,3.50
2018-03-17T21:20:14.465Z,3.25
2018-03-17T21:22:48.802Z,2.95
2018-03-17T21:25:22.778Z,4.30
2018-03-17T21:27:57.477Z,3.30
2018-03-17T21:30:31.431Z,3.20
2018-03-17T21:33:05.547Z,3.50
2018-03-17T21:35:39.519Z,3.22
2018-03-17T21:38:13.562Z,4.82
2018-03-17T21:40:47.659Z,3.45
2018-03-17T21:43:21.676Z,3.90
2018-03-17T21:45:55.688Z,3.50
2018-03-17T21:48:29.797Z,3.65
2018-03-17T21:51:03.916Z,3.50
2018-03-17T21:53:38.139Z,4.00
2018-03-17T21:56:12.123Z,3.05
2018-03-17T21:58:46.227Z,2.90
2018-03-17T22:01:20.232Z,3.75
2018-03-17T22:03:54.214Z,3.70
2018-03-17T22:06:28.152Z,3.58
2018-03-17T22:09:02.092Z,3.97
2018-03-17T22:11:36.183Z,3.50
2018-03-17T22:14:10.125Z,3.97
2018-03-17T22:16:44.149Z,3.80
2018-03-17T22:19:18.109Z,3.72
2018-03-17T22:21:52.243Z,3.40
2018-03-17T22:24:26.360Z,5.10
2018-03-17T22:27:00.508Z,3.70
2018-03-17T22:29:34.663Z,3.60
2018-03-17T22:32:08.583Z,3.80
2018-03-17T22:34:42.807Z,4.07
2018-03-17T22:37:16.804Z,3.60
2018-03-17T22:39:50.979Z,3.70
2018-03-17T22:42:24.959Z,4.10
2018-03-17T22:44:58.850Z,4.05
2018-03-17T22:47:33.002Z,3.80
2018-03-17T22:50:07.120Z,4.05
2018-03-17T22:52:41.230Z,3.92
2018-03-17T22:55:15.232Z,6.72
2018-03-17T22:57:49.311Z,3.97
2018-03-17T23:00:23.312Z,4.62
2018-03-17T23:02:57.863Z,4.93
2018-03-17T23:05:32.123Z,3.87
2018-03-17T23:08:06.304Z,4.85
2018-03-17T23:10:40.343Z,5.18
2018-03-17T23:13:14.330Z,4.50
2018-03-17T23:15:48.478Z,4.93
2018-03-17T23:18:22.428Z,4.28
2018-03-17T23:20:56.615Z,4.32
2018-03-17T23:23:30.563Z,4.60
2018-03-17T23:26:04.602Z,4.62
2018-03-17T23:28:38.708Z,4.93
2018-03-17T23:31:13.251Z,4.12
2018-03-17T23:33:47.355Z,3.97
2018-03-17T23:36:21.355Z,4.75
2018-03-17T23:38:55.375Z,5.18
2018-03-17T23:41:29.522Z,6.75
2018-03-17T23:44:03.521Z,5.40
2018-03-17T23:46:37.637Z,4.50
2018-03-17T23:49:11.708Z,5.05
2018-03-17T23:51:45.783Z,5.15
2018-03-17T23:54:19.987Z,4.95
2018-03-17T23:56:54.339Z,5.20
2018-03-17T23:59:28.306Z,6.10
